Time;durP1;ratioP1;P1;durP2;ratioP2;P2;SDS_P1;SDS_P2;PMS_P1;PMS_P2;Temp;Humidity;BMP_temperature;BMP_pressure;BME280_temperature;BME280_humidity;BME280_pressure;Samples;Min_cycle;Max_cycle;Signal;HPM_P1;HPM_P2
2023/08/27 00:01:56;;;;;;;8.77;5.68;;;19.40;1.00;;;;;;10562489;28;20297;-87
2023/08/27 00:07:18;;;;;;;6.30;5.70;;;19.30;1.00;;;;;;10548342;28;20198;-91
2023/08/27 00:12:39;;;;;;;7.20;5.47;;;19.30;1.00;;;;;;10533577;28;20198;-88
2023/08/27 00:18:01;;;;;;;7.28;6.45;;;19.30;1.00;;;;;;10547991;28;20200;-87
2023/08/27 00:23:22;;;;;;;7.82;6.35;;;19.30;1.00;;;;;;10533152;28;20552;-90
2023/08/27 00:28:43;;;;;;;8.77;7.63;;;19.30;1.00;;;;;;10562773;28;20197;-81
2023/08/27 00:34:05;;;;;;;10.02;7.05;;;19.20;1.00;;;;;;10561820;28;20210;-90
2023/08/27 00:39:27;;;;;;;9.15;7.50;;;19.10;1.00;;;;;;10547161;28;20244;-90
2023/08/27 00:44:49;;;;;;;8.82;7.70;;;19.10;1.00;;;;;;10547164;28;20205;-86
2023/08/27 00:50:11;;;;;;;9.57;6.45;;;19.00;1.00;;;;;;10560696;28;20202;-84
2023/08/27 00:55:34;;;;;;;8.02;6.50;;;19.10;1.00;;;;;;10532325;28;20201;-86
2023/08/27 01:00:56;;;;;;;7.45;6.65;;;19.10;1.00;;;;;;10546508;28;20293;-82
2023/08/27 01:06:18;;;;;;;8.65;6.45;;;19.10;1.00;;;;;;10560617;28;20215;-83
2023/08/27 01:12:00;;;;;;;10.52;8.68;;;19.00;1.00;;;;;;10546011;28;20225;-81
2023/08/27 01:17:23;;;;;;;7.85;6.63;;;19.00;1.00;;;;;;10546492;28;20194;-89
2023/08/27 01:22:44;;;;;;;7.47;6.65;;;18.90;1.00;;;;;;10532722;28;20287;-90
2023/08/27 01:28:16;;;;;;;8.77;6.22;;;18.90;99.90;;;;;;10532284;28;20364;-85
2023/08/27 01:33:39;;;;;;;7.32;5.43;;;18.80;99.90;;;;;;10532519;28;20240;-91
2023/08/27 01:39:04;;;;;;;5.32;4.82;;;18.80;99.90;;;;;;10540201;28;20238;-91
2023/08/27 01:44:25;;;;;;;7.90;4.95;;;18.80;99.90;;;;;;10569513;28;20190;-89
2023/08/27 01:49:46;;;;;;;6.75;4.40;;;18.80;1.00;;;;;;10540308;28;20224;-87
2023/08/27 01:55:08;;;;;;;4.72;3.85;;;18.80;1.00;;;;;;10569551;28;20453;-80
2023/08/27 02:00:29;;;;;;;6.32;4.18;;;18.80;1.00;;;;;;10559301;28;20237;-81
2023/08/27 02:05:50;;;;;;;4.60;3.78;;;18.80;1.00;;;;;;10539826;28;20220;-84
2023/08/27 02:11:12;;;;;;;4.20;3.50;;;18.80;1.00;;;;;;10538501;28;20198;-84
2023/08/27 02:16:38;;;;;;;3.92;3.22;;;18.80;99.90;;;;;;10552173;28;20201;-83
2023/08/27 02:22:01;;;;;;;4.07;3.30;;;18.80;99.90;;;;;;10551726;28;20386;-84
2023/08/27 02:27:22;;;;;;;3.40;3.03;;;18.80;99.90;;;;;;10552554;28;20197;-82
2023/08/27 02:32:44;;;;;;;4.40;3.58;;;18.80;99.90;;;;;;10537525;28;20194;-85
2023/08/27 02:38:05;;;;;;;9.90;4.40;;;18.80;69.70;;;;;;10565420;28;20226;-86
2023/08/27 02:43:27;;;;;;;3.88;3.38;;;18.80;99.90;;;;;;10565415;28;20397;-86
2023/08/27 02:48:48;;;;;;;4.05;3.63;;;18.80;99.90;;;;;;10550533;28;20493;-84
2023/08/27 02:54:09;;;;;;;3.75;3.30;;;18.70;1.00;;;;;;10536456;28;20270;-85
2023/08/27 02:59:31;;;;;;;4.30;3.50;;;18.70;1.00;;;;;;10536518;28;20516;-86
2023/08/27 03:04:52;;;;;;;3.63;3.28;;;18.70;99.90;;;;;;10550369;28;20202;-86
2023/08/27 03:10:14;;;;;;;4.70;3.20;;;18.70;1.00;;;;;;10549943;28;20202;-83
2023/08/27 03:15:35;;;;;;;3.60;3.30;;;18.70;99.90;;;;;;10550422;28;20210;-85
2023/08/27 03:20:57;;;;;;;4.28;3.58;;;18.70;99.90;;;;;;10535659;28;20226;-82
2023/08/27 03:26:18;;;;;;;4.80;3.33;;;18.70;99.90;;;;;;10564000;28;20485;-86
2023/08/27 03:31:39;;;;;;;3.60;2.50;;;18.60;1.00;;;;;;10549643;28;20202;-85
2023/08/27 03:37:01;;;;;;;4.82;3.13;;;18.60;43.60;;;;;;10548470;28;20264;-85
2023/08/27 03:42:22;;;;;;;5.40;3.10;;;18.60;1.00;;;;;;10555020;28;20239;-82
2023/08/27 03:47:44;;;;;;;2.90;2.60;;;18.60;1.00;;;;;;10522548;28;20202;-83
2023/08/27 03:53:05;;;;;;;4.03;3.05;;;18.60;1.00;;;;;;10534330;28;20203;-84
2023/08/27 03:58:26;;;;;;;4.32;3.10;;;18.50;1.00;;;;;;10522510;28;20199;-88
2023/08/27 04:03:48;;;;;;;3.40;3.10;;;18.50;99.90;;;;;;10508747;28;20222;-83
2023/08/27 04:09:09;;;;;;;3.67;3.20;;;18.50;1.00;;;;;;10522781;28;20201;-81
2023/08/27 04:14:30;;;;;;;3.85;2.97;;;18.60;99.90;;;;;;10519811;28;20199;-80
2023/08/27 04:19:52;;;;;;;4.05;3.50;;;18.60;99.90;;;;;;10519516;28;20248;-81
2023/08/27 04:25:15;;;;;;;5.80;3.67;;;18.60;1.00;;;;;;10558153;28;20194;-82
2023/08/27 04:30:37;;;;;;;5.28;3.80;;;18.70;99.00;;;;;;10547199;28;20205;-83
2023/08/27 04:35:58;;;;;;;5.85;3.65;;;18.70;99.90;;;;;;10560964;28;20306;-81
2023/08/27 04:41:20;;;;;;;6.68;4.13;;;18.70;1.00;;;;;;10532340;28;20544;-80
2023/08/27 04:46:41;;;;;;;6.47;3.28;;;18.70;99.90;;;;;;10561123;28;20190;-85
2023/08/27 04:52:03;;;;;;;3.38;2.88;;;18.70;99.90;;;;;;10546287;28;20201;-80
2023/08/27 04:57:25;;;;;;;2.63;2.42;;;18.70;99.90;;;;;;10546340;28;20409;-80
2023/08/27 05:02:48;;;;;;;3.63;2.80;;;18.70;99.90;;;;;;10560328;28;20412;-80
2023/08/27 05:08:10;;;;;;;4.97;2.80;;;18.70;99.90;;;;;;10560735;28;20190;-80
2023/08/27 05:13:32;;;;;;;4.15;2.63;;;18.70;98.30;;;;;;10568878;28;20269;-80
2023/08/27 05:18:54;;;;;;;2.58;2.30;;;18.80;99.90;;;;;;10553936;28;20209;-80
2023/08/27 05:24:15;;;;;;;2.58;2.20;;;18.70;99.90;;;;;;10553728;28;20267;-80
2023/08/27 05:29:37;;;;;;;3.50;2.80;;;18.70;1.00;;;;;;10539841;28;20205;-82
2023/08/27 05:34:58;;;;;;;4.53;2.88;;;18.70;99.90;;;;;;10567873;28;20421;-81
2023/08/27 05:40:19;;;;;;;3.63;2.58;;;18.60;99.90;;;;;;10553266;28;20226;-81
2023/08/27 05:45:40;;;;;;;3.58;2.53;;;18.70;99.90;;;;;;10553405;28;20210;-79
2023/08/27 05:51:03;;;;;;;2.47;2.10;;;18.70;1.00;;;;;;10538931;28;20207;-80
2023/08/27 05:56:27;;;;;;;3.92;2.00;;;18.90;1.00;;;;;;10553339;28;20193;-82
2023/08/27 06:01:48;;;;;;;4.32;2.50;;;19.10;1.00;;;;;;10538417;28;20230;-81
2023/08/27 06:07:11;;;;;;;4.15;2.25;;;19.20;99.90;;;;;;10538338;28;20190;-80
2023/08/27 06:12:32;;;;;;;3.03;1.98;;;19.30;99.90;;;;;;10552583;28;20359;-80
2023/08/27 06:17:54;;;;;;;4.28;2.83;;;19.40;87.90;;;;;;10552291;28;20481;-80
2023/08/27 06:23:16;;;;;;;3.15;2.25;;;19.60;1.00;;;;;;10565206;28;20229;-83
2023/08/27 06:28:37;;;;;;;1.98;1.80;;;19.60;99.90;;;;;;10537394;28;20274;-81
2023/08/27 06:33:58;;;;;;;3.05;2.33;;;19.60;37.20;;;;;;10551500;28;20203;-81
2023/08/27 06:39:19;;;;;;;3.67;2.40;;;19.80;1.00;;;;;;10537038;28;20226;-83
2023/08/27 06:44:41;;;;;;;2.95;2.08;;;19.90;6.30;;;;;;10550722;28;20225;-86
2023/08/27 06:50:04;;;;;;;3.13;2.13;;;20.90;1.00;;;;;;10550648;28;20273;-86
2023/08/27 06:55:26;;;;;;;3.95;1.60;;;21.40;1.00;;;;;;10550555;28;20198;-84
2023/08/27 07:00:48;;;;;;;2.00;1.67;;;22.30;99.90;;;;;;10564713;28;20373;-83
2023/08/27 07:06:09;;;;;;;5.38;1.70;;;22.30;71.50;;;;;;10536227;28;20202;-84
2023/08/27 07:11:30;;;;;;;2.25;1.58;;;22.40;1.00;;;;;;10550540;28;20186;-85
2023/08/27 07:16:51;;;;;;;7.18;1.50;;;22.70;1.00;;;;;;10549982;28;20274;-84
2023/08/27 07:22:13;;;;;;;3.03;1.63;;;22.80;1.00;;;;;;10549443;28;20222;-86
2023/08/27 07:27:34;;;;;;;2.45;1.10;;;22.70;1.00;;;;;;10550061;28;20190;-84
2023/08/27 07:32:55;;;;;;;2.67;1.50;;;22.40;1.00;;;;;;10538545;28;20508;-85
2023/08/27 07:38:18;;;;;;;1.20;1.00;;;21.90;1.00;;;;;;10542061;28;20226;-88
2023/08/27 07:43:39;;;;;;;2.10;1.30;;;21.60;1.00;;;;;;10549663;28;20233;-86
2023/08/27 07:49:00;;;;;;;1.38;1.08;;;22.60;1.00;;;;;;10551569;28;20213;-87
2023/08/27 07:54:22;;;;;;;1.02;0.98;;;;;;;;;;10548574;28;20197;-91
2023/08/27 07:59:43;;;;;;;2.25;1.30;;;25.50;1.00;;;;;;10534429;28;20217;-82
2023/08/27 08:05:04;;;;;;;1.95;1.20;;;;;;;;;;10548903;28;20214;-83
2023/08/27 08:10:25;;;;;;;3.17;1.20;;;24.50;1.00;;;;;;10547934;28;20191;-80
2023/08/27 08:15:47;;;;;;;2.85;1.33;;;23.90;1.00;;;;;;10547620;28;20206;-82
2023/08/27 08:21:09;;;;;;;1.67;1.17;;;23.50;1.00;;;;;;10547514;28;20222;-84
2023/08/27 08:26:30;;;;;;;1.60;1.30;;;23.30;1.00;;;;;;10547726;28;20221;-82
2023/08/27 08:31:51;;;;;;;1.40;1.10;;;23.70;1.00;;;;;;10561763;28;20198;-89
2023/08/27 08:37:12;;;;;;;2.22;1.48;;;25.10;1.00;;;;;;10546687;28;20230;-86
2023/08/27 08:42:45;;;;;;;4.43;2.05;;;27.20;1.00;;;;;;10520417;28;20293;-87
2023/08/27 08:48:10;;;;;;;3.65;2.13;;;27.20;1.00;;;;;;10510050;28;20187;-90
2023/08/27 08:53:34;;;;;;;5.20;2.10;;;28.20;1.00;;;;;;10546774;28;20475;-85
2023/08/27 08:58:57;;;;;;;3.65;1.98;;;27.70;1.00;;;;;;10560994;28;20202;-89
2023/08/27 09:04:21;;;;;;;2.00;1.38;;;27.40;1.00;;;;;;10546803;28;20246;-89
2023/08/27 09:09:43;;;;;;;2.88;1.42;;;26.80;1.00;;;;;;10546433;28;20195;-88
2023/08/27 09:15:04;;;;;;;2.90;1.55;;;26.70;1.00;;;;;;10547082;28;20199;-91
2023/08/27 09:20:25;;;;;;;2.53;1.60;;;26.30;1.00;;;;;;10532498;28;20205;-92
2023/08/27 09:25:47;;;;;;;1.60;1.33;;;;;;;;;;10546580;28;20212;-81
2023/08/27 09:31:10;;;;;;;2.63;1.58;;;25.30;99.90;;;;;;10560724;28;20214;-82
2023/08/27 09:36:33;;;;;;;4.03;1.60;;;25.60;99.90;;;;;;10545715;28;20257;-83
2023/08/27 09:41:56;;;;;;;2.33;1.30;;;25.80;99.90;;;;;;10560003;28;20271;-86
2023/08/27 09:47:17;;;;;;;5.32;1.92;;;26.30;99.90;;;;;;10559788;28;20198;-85
2023/08/27 09:52:38;;;;;;;5.43;1.70;;;26.50;99.90;;;;;;10520326;28;20542;-87
2023/08/27 09:57:59;;;;;;;1.90;1.67;;;26.60;99.90;;;;;;10546588;28;20195;-88
2023/08/27 10:03:24;;;;;;;1.73;1.30;;;27.00;99.90;;;;;;10552754;28;20264;-86
2023/08/27 10:08:48;;;;;;;4.00;1.95;;;27.80;99.90;;;;;;10567962;28;20210;-88
2023/08/27 10:14:10;;;;;;;2.40;1.60;;;27.90;99.90;;;;;;10552512;28;20206;-83
2023/08/27 10:19:34;;;;;;;2.65;1.70;;;28.00;99.90;;;;;;10552470;28;20199;-88
2023/08/27 10:24:57;;;;;;;3.47;1.80;;;28.20;99.90;;;;;;10551917;28;20455;-85
2023/08/27 10:30:19;;;;;;;4.43;1.92;;;28.90;99.90;;;;;;10567144;28;20356;-84
2023/08/27 10:35:41;;;;;;;1.90;1.50;;;29.30;99.90;;;;;;10566066;28;20230;-89
2023/08/27 10:41:05;;;;;;;4.50;1.95;;;29.50;99.90;;;;;;10551773;28;20234;-88
2023/08/27 10:46:26;;;;;;;3.78;2.38;;;28.30;99.90;;;;;;10551144;28;20194;-84
2023/08/27 10:51:48;;;;;;;2.80;1.83;;;27.50;99.90;;;;;;10550477;28;20194;-81
2023/08/27 10:57:17;;;;;;;3.15;2.20;;;27.50;99.90;;;;;;10550708;28;20195;-84
2023/08/27 11:03:15;;;;;;;2.75;2.10;;;27.50;99.90;;;;;;10564645;28;20573;-84
2023/08/27 11:08:37;;;;;;;4.57;2.50;;;27.00;99.90;;;;;;10549076;28;20408;-85
2023/08/27 11:14:04;;;;;;;2.80;2.22;;;26.50;99.90;;;;;;10564313;28;20373;-86
2023/08/27 11:19:32;;;;;;;3.15;2.60;;;;;;;;;;10563904;28;20265;-85
2023/08/27 11:24:54;;;;;;;4.00;2.58;;;;;;;;;;10563693;28;20260;-85
2023/08/27 11:30:16;;;;;;;3.95;2.45;;;25.60;99.90;;;;;;10535247;28;20240;-80
2023/08/27 11:35:37;;;;;;;3.10;2.80;;;25.30;99.90;;;;;;10548615;28;20567;-85
2023/08/27 11:40:59;;;;;;;4.97;2.95;;;25.20;99.90;;;;;;10521195;28;20501;-84
2023/08/27 11:46:21;;;;;;;5.05;2.80;;;25.30;1.00;;;;;;10521170;28;20209;-83
2023/08/27 11:51:42;;;;;;;5.82;2.55;;;25.40;1.00;;;;;;10565137;28;20203;-82
2023/08/27 11:57:06;;;;;;;8.43;2.70;;;26.00;1.00;;;;;;10562539;28;20194;-85
2023/08/27 12:02:27;;;;;;;4.30;2.72;;;26.50;1.00;;;;;;10548255;28;20377;-83
2023/08/27 12:07:48;;;;;;;3.50;2.38;;;26.70;1.00;;;;;;10533772;28;20225;-88
2023/08/27 12:13:10;;;;;;;3.83;2.70;;;26.70;99.90;;;;;;10547880;28;20210;-85
2023/08/27 12:18:34;;;;;;;5.90;3.20;;;26.60;99.90;;;;;;10561342;28;20199;-89
2023/08/27 12:23:55;;;;;;;7.80;2.50;;;26.20;99.90;;;;;;10547501;28;20214;-85
2023/08/27 12:29:17;;;;;;;2.78;2.47;;;25.70;99.90;;;;;;10547362;28;20511;-84
2023/08/27 12:34:49;;;;;;;6.22;2.67;;;25.20;1.00;;;;;;10546693;28;20206;-86
2023/08/27 12:40:11;;;;;;;3.53;2.58;;;;;;;;;;10529241;28;20210;-87
2023/08/27 12:45:35;;;;;;;3.40;2.58;;;24.60;1.00;;;;;;10532852;28;20230;-86
2023/08/27 12:50:56;;;;;;;5.00;2.53;;;24.60;1.00;;;;;;10546963;28;20224;-90
2023/08/27 12:56:17;;;;;;;3.30;2.45;;;24.90;1.00;;;;;;10561552;28;20190;-86
2023/08/27 13:01:39;;;;;;;4.75;2.45;;;25.00;1.00;;;;;;10561242;28;20214;-88
2023/08/27 13:07:00;;;;;;;4.00;2.28;;;25.00;1.00;;;;;;10547016;28;20555;-84
2023/08/27 13:12:21;;;;;;;3.22;2.63;;;25.00;1.00;;;;;;10551814;28;20194;-83
2023/08/27 13:17:43;;;;;;;3.70;2.90;;;24.80;1.00;;;;;;10565531;28;20523;-85
2023/08/27 13:23:03;;;;;;;4.53;3.00;;;24.60;1.00;;;;;;10546702;28;20222;-86
2023/08/27 13:28:25;;;;;;;7.55;5.47;;;24.60;1.00;;;;;;10546088;28;20220;-91
2023/08/27 13:33:46;;;;;;;7.32;3.47;;;24.70;1.00;;;;;;10553688;28;20245;-81
2023/08/27 13:39:07;;;;;;;4.80;3.20;;;24.70;1.00;;;;;;10553848;28;20249;-85
2023/08/27 13:44:28;;;;;;;7.45;3.10;;;24.60;1.00;;;;;;10569096;28;20218;-91
2023/08/27 13:49:50;;;;;;;4.32;2.65;;;25.00;1.00;;;;;;10567885;28;20243;-90
2023/08/27 13:55:11;;;;;;;4.50;2.67;;;24.80;1.00;;;;;;10567561;28;20202;-89
2023/08/27 14:00:34;;;;;;;6.80;3.88;;;24.60;1.00;;;;;;10567547;28;20408;-90
2023/08/27 14:05:56;;;;;;;6.40;3.30;;;24.20;1.00;;;;;;10567453;28;20222;-86
2023/08/27 14:11:17;;;;;;;9.15;7.00;;;24.10;1.00;;;;;;10539126;28;20198;-86
2023/08/27 14:16:38;;;;;;;5.93;3.17;;;24.00;1.00;;;;;;10553009;28;20201;-85
2023/08/27 14:21:59;;;;;;;11.18;7.88;;;23.90;1.00;;;;;;10567772;28;20559;-85
2023/08/27 14:27:21;;;;;;;4.68;2.80;;;23.80;1.00;;;;;;10552080;28;20198;-89
2023/08/27 14:32:43;;;;;;;3.88;2.72;;;23.80;1.00;;;;;;10566740;28;20268;-88
2023/08/27 14:38:03;;;;;;;4.38;3.35;;;23.80;1.00;;;;;;10565865;28;20279;-87
2023/08/27 14:43:25;;;;;;;4.63;2.33;;;23.60;1.00;;;;;;10565153;28;20566;-90
2023/08/27 14:48:48;;;;;;;4.72;2.83;;;23.40;1.00;;;;;;10551644;28;20424;-88
2023/08/27 14:54:09;;;;;;;3.78;3.17;;;23.40;1.00;;;;;;10565470;28;20187;-86
2023/08/27 14:59:41;;;;;;;3.80;3.00;;;23.40;31.20;;;;;;10566326;28;20228;-82
2023/08/27 15:05:03;;;;;;;4.30;3.47;;;23.20;99.90;;;;;;10565207;28;20260;-84
2023/08/27 15:10:24;;;;;;;5.32;3.42;;;23.30;99.90;;;;;;10550782;28;20226;-82
2023/08/27 15:15:45;;;;;;;5.63;3.45;;;23.10;99.90;;;;;;10550513;28;20198;-88
2023/08/27 15:21:06;;;;;;;5.07;2.55;;;22.90;99.90;;;;;;10565495;28;20186;-84
2023/08/27 15:26:28;;;;;;;4.10;3.03;;;22.80;99.90;;;;;;10564241;28;20216;-87
2023/08/27 15:31:49;;;;;;;3.20;2.25;;;22.80;99.90;;;;;;10563956;28;20198;-87
2023/08/27 15:37:10;;;;;;;2.50;2.28;;;22.80;99.90;;;;;;10513825;28;20452;-86
2023/08/27 15:42:32;;;;;;;4.32;1.88;;;22.60;83.40;;;;;;10509909;28;20257;-86
2023/08/27 15:47:52;;;;;;;5.38;2.70;;;22.60;43.10;;;;;;10509881;28;20244;-88
2023/08/27 15:53:14;;;;;;;4.97;2.17;;;22.40;1.00;;;;;;10562401;28;20194;-89
2023/08/27 15:58:35;;;;;;;4.00;2.47;;;;;;;;;;10507114;28;20477;-90
2023/08/27 16:03:57;;;;;;;4.05;2.45;;;21.90;28.00;;;;;;10507038;28;20237;-81
2023/08/27 16:09:20;;;;;;;3.97;2.67;;;21.80;78.10;;;;;;10520753;28;20236;-83
2023/08/27 16:14:42;;;;;;;2.92;2.30;;;21.70;99.30;;;;;;10520018;28;20493;-85
2023/08/27 16:20:03;;;;;;;2.60;2.05;;;21.70;71.30;;;;;;10522633;28;20522;-87
2023/08/27 16:25:25;;;;;;;4.22;2.05;;;21.70;99.90;;;;;;10559744;28;20224;-87
2023/08/27 16:30:47;;;;;;;3.58;1.80;;;21.70;99.90;;;;;;10547242;28;20462;-87
2023/08/27 16:36:08;;;;;;;1.95;1.75;;;21.60;1.00;;;;;;10561578;28;20265;-88
2023/08/27 16:41:29;;;;;;;4.93;2.05;;;21.40;1.00;;;;;;10560963;28;20564;-86
2023/08/27 16:46:51;;;;;;;3.38;2.08;;;21.20;1.00;;;;;;10547044;28;20202;-86
2023/08/27 16:52:12;;;;;;;4.00;2.55;;;21.10;99.90;;;;;;10546462;28;20273;-85
2023/08/27 16:57:33;;;;;;;4.80;2.78;;;20.90;1.00;;;;;;10546879;28;20386;-85
2023/08/27 17:02:56;;;;;;;5.05;2.90;;;20.80;1.00;;;;;;10561338;28;20297;-86
2023/08/27 17:08:17;;;;;;;6.72;2.55;;;20.70;1.00;;;;;;10568250;28;20194;-90
2023/08/27 17:13:39;;;;;;;5.22;2.72;;;20.60;99.90;;;;;;10555603;28;20204;-89
2023/08/27 17:19:00;;;;;;;5.50;2.42;;;20.40;1.00;;;;;;10569694;28;20205;-87
2023/08/27 17:24:21;;;;;;;4.50;2.50;;;20.20;99.90;;;;;;10530161;28;20528;-81
2023/08/27 17:29:42;;;;;;;3.30;2.45;;;20.20;99.90;;;;;;10512681;28;20198;-84
2023/08/27 17:35:04;;;;;;;7.93;3.78;;;20.10;1.00;;;;;;10502194;28;20190;-86
2023/08/27 17:40:25;;;;;;;5.40;2.88;;;20.00;99.90;;;;;;10568148;28;20428;-84
2023/08/27 17:45:47;;;;;;;5.50;3.75;;;;;;;;;;10554328;28;20544;-83
2023/08/27 17:51:08;;;;;;;5.40;2.53;;;19.70;3.00;;;;;;10553552;28;20201;-88
2023/08/27 17:56:29;;;;;;;3.10;2.17;;;19.60;99.90;;;;;;10567655;28;20224;-83
2023/08/27 18:01:50;;;;;;;2.95;2.20;;;19.60;1.00;;;;;;10567771;28;20269;-88
2023/08/27 18:07:12;;;;;;;3.40;1.98;;;19.50;52.00;;;;;;10552408;28;20198;-83
2023/08/27 18:12:33;;;;;;;3.05;1.88;;;19.50;1.00;;;;;;10566675;28;20199;-83
2023/08/27 18:17:55;;;;;;;4.88;2.10;;;19.40;1.00;;;;;;10537115;28;20198;-89
2023/08/27 18:23:16;;;;;;;4.85;1.85;;;19.30;1.00;;;;;;10567539;28;20218;-83
2023/08/27 18:28:38;;;;;;;4.03;2.22;;;19.30;99.90;;;;;;10538177;28;20384;-81
2023/08/27 18:33:59;;;;;;;4.63;2.05;;;19.20;1.00;;;;;;10551769;28;20228;-85
2023/08/27 18:39:20;;;;;;;4.18;2.13;;;19.10;99.90;;;;;;10529486;28;20238;-86
2023/08/27 18:44:42;;;;;;;2.40;2.20;;;19.00;1.00;;;;;;10580631;28;20289;-92
2023/08/27 18:50:03;;;;;;;3.95;2.20;;;19.00;99.90;;;;;;10565254;28;20194;-89
2023/08/27 18:55:25;;;;;;;3.40;2.50;;;19.00;99.90;;;;;;10550846;28;20226;-82
2023/08/27 19:00:46;;;;;;;5.30;2.35;;;19.00;99.90;;;;;;10553038;28;20186;-82
2023/08/27 19:06:07;;;;;;;4.47;2.78;;;19.30;1.00;;;;;;10568270;28;20218;-81
2023/08/27 19:11:29;;;;;;;6.15;2.10;;;18.90;1.00;;;;;;10550406;28;20195;-82
2023/08/27 19:16:50;;;;;;;3.15;2.15;;;18.90;1.00;;;;;;10564727;28;20236;-80
2023/08/27 19:22:11;;;;;;;2.60;2.25;;;18.90;1.00;;;;;;10550220;28;20365;-90
2023/08/27 19:27:33;;;;;;;2.85;2.22;;;18.90;1.00;;;;;;10549933;28;20196;-85
2023/08/27 19:32:54;;;;;;;4.53;2.63;;;18.80;1.00;;;;;;10563780;28;20255;-80
2023/08/27 19:38:15;;;;;;;4.22;2.85;;;18.80;1.00;;;;;;10549059;28;20226;-81
2023/08/27 19:43:36;;;;;;;3.67;2.83;;;18.80;1.00;;;;;;10534774;28;20297;-81
2023/08/27 19:48:58;;;;;;;5.18;3.15;;;18.80;1.00;;;;;;10548859;28;20366;-81
2023/08/27 19:54:19;;;;;;;4.97;3.22;;;18.80;1.00;;;;;;10548433;28;20212;-85
2023/08/27 19:59:42;;;;;;;3.42;2.80;;;18.70;1.00;;;;;;10548777;28;20221;-81
2023/08/27 20:05:04;;;;;;;3.63;2.80;;;;;;;;;;10547550;28;20305;-81
2023/08/27 20:10:25;;;;;;;4.22;2.75;;;18.50;1.00;;;;;;10562291;28;20405;-82
2023/08/27 20:15:47;;;;;;;4.78;3.10;;;18.50;1.00;;;;;;10562030;28;20237;-83
2023/08/27 20:21:08;;;;;;;5.10;3.20;;;18.40;1.00;;;;;;10547302;28;20239;-83
2023/08/27 20:26:30;;;;;;;4.97;2.75;;;18.40;12.70;;;;;;10547735;28;20218;-84
2023/08/27 20:31:51;;;;;;;4.20;2.90;;;18.30;1.00;;;;;;10547150;28;20195;-82
2023/08/27 20:37:12;;;;;;;5.03;2.83;;;18.30;1.00;;;;;;10561649;28;20300;-87
2023/08/27 20:42:34;;;;;;;5.15;2.65;;;18.30;1.00;;;;;;10505107;28;20553;-85
2023/08/27 20:47:55;;;;;;;4.53;2.55;;;18.30;1.00;;;;;;10537053;28;20244;-90
2023/08/27 20:53:16;;;;;;;3.05;2.00;;;18.20;1.00;;;;;;10533263;28;20197;-91
2023/08/27 20:58:37;;;;;;;4.88;2.88;;;18.10;1.00;;;;;;10521929;28;20222;-89
2023/08/27 21:04:00;;;;;;;3.88;2.20;;;18.10;1.00;;;;;;10518925;28;20233;-87
2023/08/27 21:09:22;;;;;;;2.50;2.30;;;;;;;;;;10504711;28;20494;-82
2023/08/27 21:14:43;;;;;;;3.35;2.45;;;;;;;;;;10504478;28;20270;-82
2023/08/27 21:20:05;;;;;;;4.50;2.72;;;18.00;24.20;;;;;;10518351;28;20364;-81
2023/08/27 21:25:27;;;;;;;4.03;2.45;;;18.00;1.00;;;;;;10559635;28;20533;-90
2023/08/27 21:30:48;;;;;;;3.22;2.50;;;18.00;1.00;;;;;;10531679;28;20194;-83
2023/08/27 21:36:09;;;;;;;3.80;2.58;;;18.10;1.00;;;;;;10532054;28;20279;-84
2023/08/27 21:41:30;;;;;;;4.72;2.60;;;18.10;1.00;;;;;;10561289;28;20202;-84
2023/08/27 21:46:52;;;;;;;3.55;2.63;;;18.10;99.90;;;;;;10559593;28;20293;-84
2023/08/27 21:52:13;;;;;;;5.93;3.10;;;18.20;17.30;;;;;;10548828;28;20224;-82
2023/08/27 21:57:34;;;;;;;3.05;2.75;;;18.20;13.30;;;;;;10553085;28;20274;-81
2023/08/27 22:02:56;;;;;;;3.88;2.40;;;18.20;96.40;;;;;;10568196;28;20207;-91
2023/08/27 22:08:17;;;;;;;3.35;2.40;;;18.30;18.90;;;;;;10567725;28;20269;-88
2023/08/27 22:13:38;;;;;;;4.72;2.63;;;18.20;31.00;;;;;;10567311;28;20191;-89
2023/08/27 22:19:00;;;;;;;3.58;2.55;;;18.20;1.00;;;;;;10552579;28;20271;-81
2023/08/27 22:24:24;;;;;;;2.50;2.25;;;18.20;37.90;;;;;;10567465;28;20222;-81
2023/08/27 22:29:45;;;;;;;2.80;2.15;;;18.20;13.60;;;;;;10566021;28;20260;-89
2023/08/27 22:35:14;;;;;;;1.95;1.75;;;18.10;99.90;;;;;;10537720;28;20200;-85
2023/08/27 22:40:36;;;;;;;1.70;1.50;;;18.20;75.30;;;;;;10565731;28;20248;-83
2023/08/27 22:45:58;;;;;;;1.50;1.40;;;18.20;90.40;;;;;;10551802;28;20218;-85
2023/08/27 22:51:22;;;;;;;2.00;1.52;;;18.20;63.80;;;;;;10551289;28;20199;-81
2023/08/27 22:56:44;;;;;;;1.63;1.52;;;18.30;9.90;;;;;;10551216;28;20262;-88
2023/08/27 23:02:05;;;;;;;1.88;1.30;;;18.30;70.00;;;;;;10550283;28;20221;-85
2023/08/27 23:07:26;;;;;;;1.98;1.67;;;18.30;70.80;;;;;;10550566;28;20198;-83
2023/08/27 23:12:48;;;;;;;2.15;1.75;;;18.30;54.10;;;;;;10564784;28;20201;-84
2023/08/27 23:18:09;;;;;;;1.50;1.40;;;18.30;72.90;;;;;;10535982;28;20198;-84
2023/08/27 23:23:30;;;;;;;2.38;1.38;;;18.20;6.60;;;;;;10549830;28;20595;-83
2023/08/27 23:28:51;;;;;;;1.30;1.20;;;18.20;1.00;;;;;;10535811;28;20201;-84
2023/08/27 23:34:13;;;;;;;2.85;1.10;;;18.10;4.60;;;;;;10549924;28;20193;-86
2023/08/27 23:39:37;;;;;;;1.52;0.60;;;18.00;14.50;;;;;;10534644;28;20390;-85
2023/08/27 23:44:58;;;;;;;0.95;0.85;;;17.80;1.00;;;;;;10548916;28;20229;-84
2023/08/27 23:50:20;;;;;;;0.50;0.50;;;17.80;31.60;;;;;;10562538;28;20535;-81
2023/08/27 23:55:41;;;;;;;1.20;0.95;;;17.90;3.10;;;;;;10562541;28;20198;-83
